Impacts METAR Board
IDs:

KLAS - Las Vegas/McCarran I, NV, US

Updated at: 1900 UTC 17 Jul 2018
Potential Impact None Slight Moderate High
Time 17/07Z 17/08Z 17/09Z 17/10Z 17/11Z 17/12Z 17/13Z 17/14Z 17/15Z 17/16Z 17/17Z 17/18Z 17/19Z
Temp98 97 95 94 93 92 91 92 92 95 99 102 105
Dewpt57 57 55 53 53 53 55 58 59 58 56 57 58
Altim29.86 29.86 29.86 29.86 29.87 29.89 29.92 29.94 29.96 29.97 29.96 29.97 29.96
VIS10 10 10 10 10 10 10 10 10 10 10 10 10
CIG-- -- -- -- 250 250 -- -- -- -- -- -- --
CoverFEWFEWFEWSCTBKNBKNSCTSCTSCTSCTSCTFEWSCT
FltCatVFRVFRVFRVFRVFRVFRVFRVFRVFRVFRVFRVFRVFR
WX--------------------------
WDir1801701801901801800280000700
WSpd6 5 8 7 3 4 0 4 0 3 0 4 4
WGst-- -- -- -- -- -- -- -- -- -- -- -- --
Raw hourly METARs
KLAS 170656Z 18006KT 10SM FEW250 37/14 A2986 RMK AO2 SLP077 T03670139
KLAS 170756Z 17005KT 10SM FEW250 36/14 A2986 RMK AO2 SLP076 T03610139 404220306
KLAS 170856Z 18008KT 10SM FEW250 35/13 A2986 RMK AO2 SLP076 T03500128 51000
KLAS 170956Z 19007KT 10SM SCT250 34/12 A2986 RMK AO2 SLP078 T03440117
KLAS 171056Z 18003KT 10SM BKN250 34/12 A2987 RMK AO2 SLP081 T03390117
KLAS 171156Z 18004KT 10SM BKN250 33/12 A2989 RMK AO2 SLP085 T03330117 10372 20333 53009
KLAS 171256Z 00000KT 10SM FEW140 SCT250 33/13 A2992 RMK AO2 SLP097 T03280128
KLAS 171356Z 28004KT 10SM SCT140 SCT250 33/14 A2994 RMK AO2 SLP104 ACC NE-E AND W T03330144
KLAS 171456Z 00000KT 10SM SCT140 SCT250 33/15 A2996 RMK AO2 SLP111 ACC E-S-NW T03330150 51023
KLAS 171556Z VRB03KT 10SM FEW120 SCT140 SCT250 35/14 A2997 RMK AO2 SLP114 ACC E-S-NW T03500144 $
KLAS 171656Z 00000KT 10SM FEW120 FEW140 SCT250 37/13 A2996 RMK AO2 SLP111 T03720133 $
KLAS 171756Z 07004KT 10SM FEW120 FEW250 39/14 A2997 RMK AO2 SLP114 T03890139 10389 20328 51003 $
KLAS 171856Z VRB04KT 10SM FEW120 SCT250 41/14 A2996 RMK AO2 SLP110 T04060144 $



Page loaded:  19:24 UTC  |   12:24 PM Pacific  |   01:24 PM Mountain  |   02:24 PM Central  |   03:24 PM Eastern

 

ADVISORIES

FORECASTS

FORECASTS

OBSERVATIONS

USER TOOLS

ABOUT US